ADDS METAR Data INFO
IDs: Format: Raw Decoded Include TAF

Data at: 0731 UTC 16 Jan 2018

METAR for:KCRP (Corpus Christi Intl, TX, US)
Text:KCRP 160651Z 01004KT 10SM FEW033 SCT050 OVC085 15/13 A3028 RMK AO2 SLP253 T01500128 $
Temperature: 15.0°C ( 59°F)
Dewpoint: 12.8°C ( 55°F) [RH = 87%]
Pressure (altimeter):30.28 inches Hg (1025.5 mb) [Sea level pressure: 1025.3 mb]
Winds:from the N (10 degrees) at 5 MPH (4 knots; 2.1 m/s)
Visibility:10 or more sm (16+ km)
Ceiling:8500 feet AGL
Clouds: few clouds at 3300 feet AGL, scattered clouds at 5000 feet AGL, overcast cloud deck at 8500 feet AGL
QC Flag:SOME DATA ABOVE MAY BE INACCURATE!!!"$" is an indication the sensor requires maintenance.